sensor_id;sensor_type;location;lat;lon;timestamp;temperature;humidity
2002;DHT22;1003;48.002;7.788;2023-12-20T00:01:35;7.10;99.90
2002;DHT22;1003;48.002;7.788;2023-12-20T00:04:02;7.10;99.90
2002;DHT22;1003;48.002;7.788;2023-12-20T00:06:29;7.10;99.90
2002;DHT22;1003;48.002;7.788;2023-12-20T00:08:56;7.20;99.90
2002;DHT22;1003;48.002;7.788;2023-12-20T00:11:24;7.10;99.90
2002;DHT22;1003;48.002;7.788;2023-12-20T00:13:52;7.10;99.90
2002;DHT22;1003;48.002;7.788;2023-12-20T00:16:19;7.10;99.90
2002;DHT22;1003;48.002;7.788;2023-12-20T00:18:46;7.10;99.90
2002;DHT22;1003;48.002;7.788;2023-12-20T00:21:13;7.10;99.90
2002;DHT22;1003;48.002;7.788;2023-12-20T00:23:40;7.10;99.90
2002;DHT22;1003;48.002;7.788;2023-12-20T00:26:06;7.00;99.90
2002;DHT22;1003;48.002;7.788;2023-12-20T00:28:33;7.00;99.90
2002;DHT22;1003;48.002;7.788;2023-12-20T00:31:02;7.00;99.90
2002;DHT22;1003;48.002;7.788;2023-12-20T00:33:29;7.00;99.90
2002;DHT22;1003;48.002;7.788;2023-12-20T00:35:55;7.00;99.90
2002;DHT22;1003;48.002;7.788;2023-12-20T00:38:22;7.10;99.90
2002;DHT22;1003;48.002;7.788;2023-12-20T00:40:49;7.00;99.90
2002;DHT22;1003;48.002;7.788;2023-12-20T00:43:16;7.10;99.90
2002;DHT22;1003;48.002;7.788;2023-12-20T00:45:43;7.00;99.90
2002;DHT22;1003;48.002;7.788;2023-12-20T00:48:11;7.00;99.90
2002;DHT22;1003;48.002;7.788;2023-12-20T00:50:38;6.80;99.90
2002;DHT22;1003;48.002;7.788;2023-12-20T00:53:05;6.80;99.90
2002;DHT22;1003;48.002;7.788;2023-12-20T00:55:32;6.70;99.90
2002;DHT22;1003;48.002;7.788;2023-12-20T00:57:59;6.70;99.90
2002;DHT22;1003;48.002;7.788;2023-12-20T01:00:26;6.60;99.90
2002;DHT22;1003;48.002;7.788;2023-12-20T01:02:53;6.50;99.90
2002;DHT22;1003;48.002;7.788;2023-12-20T01:05:21;6.40;99.90
2002;DHT22;1003;48.002;7.788;2023-12-20T01:07:49;6.40;99.90
2002;DHT22;1003;48.002;7.788;2023-12-20T01:10:15;6.30;99.90
2002;DHT22;1003;48.002;7.788;2023-12-20T01:12:43;6.30;99.90
2002;DHT22;1003;48.002;7.788;2023-12-20T01:15:10;6.30;99.90
2002;DHT22;1003;48.002;7.788;2023-12-20T01:17:37;6.30;99.90
2002;DHT22;1003;48.002;7.788;2023-12-20T01:20:05;6.20;99.90
2002;DHT22;1003;48.002;7.788;2023-12-20T01:22:35;6.30;99.90
2002;DHT22;1003;48.002;7.788;2023-12-20T01:25:02;6.30;99.90
2002;DHT22;1003;48.002;7.788;2023-12-20T01:27:29;6.20;99.90
2002;DHT22;1003;48.002;7.788;2023-12-20T01:29:56;6.20;99.90
2002;DHT22;1003;48.002;7.788;2023-12-20T01:32:23;6.20;99.90
2002;DHT22;1003;48.002;7.788;2023-12-20T01:34:50;6.10;99.90
2002;DHT22;1003;48.002;7.788;2023-12-20T01:37:17;6.10;99.90
2002;DHT22;1003;48.002;7.788;2023-12-20T01:39:45;6.10;99.90
2002;DHT22;1003;48.002;7.788;2023-12-20T01:42:12;6.10;99.90
2002;DHT22;1003;48.002;7.788;2023-12-20T01:44:39;6.10;99.90
2002;DHT22;1003;48.002;7.788;2023-12-20T01:47:06;6.10;99.90
2002;DHT22;1003;48.002;7.788;2023-12-20T01:49:33;6.10;99.90
2002;DHT22;1003;48.002;7.788;2023-12-20T01:52:01;6.10;99.90
2002;DHT22;1003;48.002;7.788;2023-12-20T01:54:28;6.10;99.90
2002;DHT22;1003;48.002;7.788;2023-12-20T01:56:57;6.10;99.90
2002;DHT22;1003;48.002;7.788;2023-12-20T01:59:24;6.20;99.90
2002;DHT22;1003;48.002;7.788;2023-12-20T02:01:52;6.20;99.90
2002;DHT22;1003;48.002;7.788;2023-12-20T02:04:19;6.20;99.90
2002;DHT22;1003;48.002;7.788;2023-12-20T02:06:47;6.20;99.90
2002;DHT22;1003;48.002;7.788;2023-12-20T02:09:18;6.20;99.90
2002;DHT22;1003;48.002;7.788;2023-12-20T02:11:45;6.20;99.90
2002;DHT22;1003;48.002;7.788;2023-12-20T02:14:14;6.20;99.90
2002;DHT22;1003;48.002;7.788;2023-12-20T02:16:41;6.20;99.90
2002;DHT22;1003;48.002;7.788;2023-12-20T02:19:13;6.10;99.90
2002;DHT22;1003;48.002;7.788;2023-12-20T02:21:42;6.10;99.90
2002;DHT22;1003;48.002;7.788;2023-12-20T02:24:09;6.10;99.90
2002;DHT22;1003;48.002;7.788;2023-12-20T02:26:36;6.10;99.90
2002;DHT22;1003;48.002;7.788;2023-12-20T02:29:03;6.10;99.90
2002;DHT22;1003;48.002;7.788;2023-12-20T02:31:30;6.10;99.90
2002;DHT22;1003;48.002;7.788;2023-12-20T02:33:57;6.10;99.90
2002;DHT22;1003;48.002;7.788;2023-12-20T02:36:24;6.00;99.90
2002;DHT22;1003;48.002;7.788;2023-12-20T02:38:52;6.00;99.90
2002;DHT22;1003;48.002;7.788;2023-12-20T02:41:19;6.10;99.90
2002;DHT22;1003;48.002;7.788;2023-12-20T02:43:46;6.10;99.90
2002;DHT22;1003;48.002;7.788;2023-12-20T02:46:14;6.10;99.90
2002;DHT22;1003;48.002;7.788;2023-12-20T02:48:43;6.00;99.90
2002;DHT22;1003;48.002;7.788;2023-12-20T02:51:09;6.00;99.90
2002;DHT22;1003;48.002;7.788;2023-12-20T02:53:36;6.00;99.90
2002;DHT22;1003;48.002;7.788;2023-12-20T02:56:05;6.00;99.90
2002;DHT22;1003;48.002;7.788;2023-12-20T02:58:32;6.00;99.90
2002;DHT22;1003;48.002;7.788;2023-12-20T03:00:59;5.90;99.90
2002;DHT22;1003;48.002;7.788;2023-12-20T03:03:26;6.00;99.90
2002;DHT22;1003;48.002;7.788;2023-12-20T03:05:53;5.90;99.90
2002;DHT22;1003;48.002;7.788;2023-12-20T03:08:20;5.90;99.90
2002;DHT22;1003;48.002;7.788;2023-12-20T03:10:47;5.90;99.90
2002;DHT22;1003;48.002;7.788;2023-12-20T03:13:15;6.00;99.90
2002;DHT22;1003;48.002;7.788;2023-12-20T03:15:42;6.10;99.90
2002;DHT22;1003;48.002;7.788;2023-12-20T03:18:09;6.00;99.90
2002;DHT22;1003;48.002;7.788;2023-12-20T03:20:36;6.00;99.90
2002;DHT22;1003;48.002;7.788;2023-12-20T03:23:03;5.90;99.90
2002;DHT22;1003;48.002;7.788;2023-12-20T03:25:30;5.90;99.90
2002;DHT22;1003;48.002;7.788;2023-12-20T03:27:57;5.90;99.90
2002;DHT22;1003;48.002;7.788;2023-12-20T03:30:26;5.90;99.90
2002;DHT22;1003;48.002;7.788;2023-12-20T03:32:52;5.90;99.90
2002;DHT22;1003;48.002;7.788;2023-12-20T03:35:19;5.90;99.90
2002;DHT22;1003;48.002;7.788;2023-12-20T03:37:46;5.90;99.90
2002;DHT22;1003;48.002;7.788;2023-12-20T03:40:13;5.90;99.90
2002;DHT22;1003;48.002;7.788;2023-12-20T03:42:40;5.90;99.90
2002;DHT22;1003;48.002;7.788;2023-12-20T03:45:08;5.90;99.90
2002;DHT22;1003;48.002;7.788;2023-12-20T03:47:37;5.90;99.90
2002;DHT22;1003;48.002;7.788;2023-12-20T03:50:05;5.90;99.90
2002;DHT22;1003;48.002;7.788;2023-12-20T03:52:32;5.90;99.90
2002;DHT22;1003;48.002;7.788;2023-12-20T03:54:59;5.90;99.90
2002;DHT22;1003;48.002;7.788;2023-12-20T03:57:26;6.00;99.90
2002;DHT22;1003;48.002;7.788;2023-12-20T03:59:53;6.00;99.90
2002;DHT22;1003;48.002;7.788;2023-12-20T04:02:20;6.10;99.90
2002;DHT22;1003;48.002;7.788;2023-12-20T04:04:48;6.00;99.90
2002;DHT22;1003;48.002;7.788;2023-12-20T04:07:15;5.90;99.90
2002;DHT22;1003;48.002;7.788;2023-12-20T04:09:42;5.90;99.90
2002;DHT22;1003;48.002;7.788;2023-12-20T04:12:09;5.90;99.90
2002;DHT22;1003;48.002;7.788;2023-12-20T04:14:36;5.90;99.90
2002;DHT22;1003;48.002;7.788;2023-12-20T04:17:03;5.90;99.90
2002;DHT22;1003;48.002;7.788;2023-12-20T04:19:30;6.00;99.90
2002;DHT22;1003;48.002;7.788;2023-12-20T04:21:58;6.00;99.90
2002;DHT22;1003;48.002;7.788;2023-12-20T04:24:25;6.00;99.90
2002;DHT22;1003;48.002;7.788;2023-12-20T04:26:52;6.00;99.90
2002;DHT22;1003;48.002;7.788;2023-12-20T04:29:19;5.90;99.90
2002;DHT22;1003;48.002;7.788;2023-12-20T04:31:46;6.00;99.90
2002;DHT22;1003;48.002;7.788;2023-12-20T04:34:13;6.00;99.90
2002;DHT22;1003;48.002;7.788;2023-12-20T04:36:40;6.00;99.90
2002;DHT22;1003;48.002;7.788;2023-12-20T04:39:08;6.00;99.90
2002;DHT22;1003;48.002;7.788;2023-12-20T04:41:35;6.00;99.90
2002;DHT22;1003;48.002;7.788;2023-12-20T04:44:02;6.00;99.90
2002;DHT22;1003;48.002;7.788;2023-12-20T04:46:29;6.00;99.90
2002;DHT22;1003;48.002;7.788;2023-12-20T04:48:56;6.00;99.90
2002;DHT22;1003;48.002;7.788;2023-12-20T04:51:23;6.00;99.90
2002;DHT22;1003;48.002;7.788;2023-12-20T04:53:50;6.00;99.90
2002;DHT22;1003;48.002;7.788;2023-12-20T04:56:18;6.00;99.90
2002;DHT22;1003;48.002;7.788;2023-12-20T04:58:45;6.00;99.90
2002;DHT22;1003;48.002;7.788;2023-12-20T05:01:13;6.00;99.90
2002;DHT22;1003;48.002;7.788;2023-12-20T05:03:40;6.00;99.90
2002;DHT22;1003;48.002;7.788;2023-12-20T05:06:07;6.00;99.90
2002;DHT22;1003;48.002;7.788;2023-12-20T05:08:34;6.00;99.90
2002;DHT22;1003;48.002;7.788;2023-12-20T05:11:01;6.00;99.90
2002;DHT22;1003;48.002;7.788;2023-12-20T05:13:30;6.00;99.90
2002;DHT22;1003;48.002;7.788;2023-12-20T05:15:57;6.10;99.90
2002;DHT22;1003;48.002;7.788;2023-12-20T05:18:24;6.10;99.90
2002;DHT22;1003;48.002;7.788;2023-12-20T05:20:51;6.10;99.90
2002;DHT22;1003;48.002;7.788;2023-12-20T05:23:19;6.10;99.90
2002;DHT22;1003;48.002;7.788;2023-12-20T05:25:46;6.10;99.90
2002;DHT22;1003;48.002;7.788;2023-12-20T05:28:12;6.10;99.90
2002;DHT22;1003;48.002;7.788;2023-12-20T05:30:41;6.10;99.90
2002;DHT22;1003;48.002;7.788;2023-12-20T05:33:08;6.10;99.90
2002;DHT22;1003;48.002;7.788;2023-12-20T05:35:34;6.10;99.90
2002;DHT22;1003;48.002;7.788;2023-12-20T05:38:01;6.20;99.90
2002;DHT22;1003;48.002;7.788;2023-12-20T05:40:28;6.20;99.90
2002;DHT22;1003;48.002;7.788;2023-12-20T05:42:55;6.10;99.90
2002;DHT22;1003;48.002;7.788;2023-12-20T05:45:22;6.10;99.90
2002;DHT22;1003;48.002;7.788;2023-12-20T05:47:50;6.10;99.90
2002;DHT22;1003;48.002;7.788;2023-12-20T05:50:17;6.10;99.90
2002;DHT22;1003;48.002;7.788;2023-12-20T05:52:44;6.10;99.90
2002;DHT22;1003;48.002;7.788;2023-12-20T05:55:11;6.10;99.90
2002;DHT22;1003;48.002;7.788;2023-12-20T05:57:38;6.20;99.90
2002;DHT22;1003;48.002;7.788;2023-12-20T06:00:06;6.10;99.90
2002;DHT22;1003;48.002;7.788;2023-12-20T06:02:35;6.10;99.90
2002;DHT22;1003;48.002;7.788;2023-12-20T06:05:04;6.10;99.90
2002;DHT22;1003;48.002;7.788;2023-12-20T06:07:31;6.10;99.90
2002;DHT22;1003;48.002;7.788;2023-12-20T06:09:58;6.10;99.90
2002;DHT22;1003;48.002;7.788;2023-12-20T06:12:25;6.10;99.90
2002;DHT22;1003;48.002;7.788;2023-12-20T06:14:54;6.10;99.90
2002;DHT22;1003;48.002;7.788;2023-12-20T06:17:21;6.20;99.90
2002;DHT22;1003;48.002;7.788;2023-12-20T06:19:48;6.20;99.90
2002;DHT22;1003;48.002;7.788;2023-12-20T06:22:16;6.20;99.90
2002;DHT22;1003;48.002;7.788;2023-12-20T06:24:43;6.20;99.90
2002;DHT22;1003;48.002;7.788;2023-12-20T06:27:10;6.20;99.90
2002;DHT22;1003;48.002;7.788;2023-12-20T06:29:36;6.20;99.90
2002;DHT22;1003;48.002;7.788;2023-12-20T06:32:04;6.20;99.90
2002;DHT22;1003;48.002;7.788;2023-12-20T06:34:31;6.20;99.90
2002;DHT22;1003;48.002;7.788;2023-12-20T06:36:58;6.20;99.90
2002;DHT22;1003;48.002;7.788;2023-12-20T06:39:26;6.20;99.90
2002;DHT22;1003;48.002;7.788;2023-12-20T06:41:54;6.20;99.90
2002;DHT22;1003;48.002;7.788;2023-12-20T06:44:21;6.20;99.90
2002;DHT22;1003;48.002;7.788;2023-12-20T06:46:48;6.20;99.90
2002;DHT22;1003;48.002;7.788;2023-12-20T06:49:15;6.20;99.90
2002;DHT22;1003;48.002;7.788;2023-12-20T06:51:42;6.20;99.90
2002;DHT22;1003;48.002;7.788;2023-12-20T06:54:09;6.20;99.90
2002;DHT22;1003;48.002;7.788;2023-12-20T06:56:37;6.20;99.90
2002;DHT22;1003;48.002;7.788;2023-12-20T06:59:04;6.20;99.90
2002;DHT22;1003;48.002;7.788;2023-12-20T07:01:31;6.20;99.90
2002;DHT22;1003;48.002;7.788;2023-12-20T07:03:59;6.20;99.90
2002;DHT22;1003;48.002;7.788;2023-12-20T07:06:26;6.20;99.90
2002;DHT22;1003;48.002;7.788;2023-12-20T07:08:53;6.20;99.90
2002;DHT22;1003;48.002;7.788;2023-12-20T07:11:19;6.20;99.90
2002;DHT22;1003;48.002;7.788;2023-12-20T07:13:48;6.20;99.90
2002;DHT22;1003;48.002;7.788;2023-12-20T07:16:15;6.10;99.90
2002;DHT22;1003;48.002;7.788;2023-12-20T07:18:42;6.20;99.90
2002;DHT22;1003;48.002;7.788;2023-12-20T07:21:08;6.10;99.90
2002;DHT22;1003;48.002;7.788;2023-12-20T07:23:35;6.10;99.90
2002;DHT22;1003;48.002;7.788;2023-12-20T07:26:03;6.10;99.90
2002;DHT22;1003;48.002;7.788;2023-12-20T07:28:31;6.10;99.90
2002;DHT22;1003;48.002;7.788;2023-12-20T07:31:00;6.20;99.90
2002;DHT22;1003;48.002;7.788;2023-12-20T07:33:27;6.20;99.90
2002;DHT22;1003;48.002;7.788;2023-12-20T07:35:53;6.20;99.90
2002;DHT22;1003;48.002;7.788;2023-12-20T07:38:20;6.20;99.90
2002;DHT22;1003;48.002;7.788;2023-12-20T07:40:47;6.20;99.90
2002;DHT22;1003;48.002;7.788;2023-12-20T07:43:14;6.20;99.90
2002;DHT22;1003;48.002;7.788;2023-12-20T07:45:41;6.20;99.90
2002;DHT22;1003;48.002;7.788;2023-12-20T07:48:10;6.20;99.90
2002;DHT22;1003;48.002;7.788;2023-12-20T07:50:36;6.20;99.90
2002;DHT22;1003;48.002;7.788;2023-12-20T07:53:03;6.20;99.90
2002;DHT22;1003;48.002;7.788;2023-12-20T07:55:30;6.20;99.90
2002;DHT22;1003;48.002;7.788;2023-12-20T07:57:57;6.20;99.90
2002;DHT22;1003;48.002;7.788;2023-12-20T08:00:24;6.20;99.90
2002;DHT22;1003;48.002;7.788;2023-12-20T08:02:51;6.20;99.90
2002;DHT22;1003;48.002;7.788;2023-12-20T08:05:19;6.20;99.90
2002;DHT22;1003;48.002;7.788;2023-12-20T08:07:46;6.20;99.90
2002;DHT22;1003;48.002;7.788;2023-12-20T08:10:13;6.20;99.90
2002;DHT22;1003;48.002;7.788;2023-12-20T08:12:40;6.20;99.90
2002;DHT22;1003;48.002;7.788;2023-12-20T08:15:07;6.20;99.90
2002;DHT22;1003;48.002;7.788;2023-12-20T08:17:35;6.20;99.90
2002;DHT22;1003;48.002;7.788;2023-12-20T08:20:02;6.20;99.90
2002;DHT22;1003;48.002;7.788;2023-12-20T08:22:31;6.20;99.90
2002;DHT22;1003;48.002;7.788;2023-12-20T08:24:58;6.20;99.90
2002;DHT22;1003;48.002;7.788;2023-12-20T08:27:25;6.20;99.90
2002;DHT22;1003;48.002;7.788;2023-12-20T08:29:52;6.30;99.90
2002;DHT22;1003;48.002;7.788;2023-12-20T08:32:19;6.30;99.90
2002;DHT22;1003;48.002;7.788;2023-12-20T08:34:46;6.40;99.90
2002;DHT22;1003;48.002;7.788;2023-12-20T08:37:13;6.40;99.90
2002;DHT22;1003;48.002;7.788;2023-12-20T08:39:41;6.50;99.90
2002;DHT22;1003;48.002;7.788;2023-12-20T08:42:09;6.50;99.90
2002;DHT22;1003;48.002;7.788;2023-12-20T08:44:36;6.50;99.90
2002;DHT22;1003;48.002;7.788;2023-12-20T08:47:03;6.50;99.90
2002;DHT22;1003;48.002;7.788;2023-12-20T08:49:31;6.50;99.90
2002;DHT22;1003;48.002;7.788;2023-12-20T08:51:57;6.50;99.90
2002;DHT22;1003;48.002;7.788;2023-12-20T08:54:24;6.60;99.90
2002;DHT22;1003;48.002;7.788;2023-12-20T08:56:53;6.60;99.90
2002;DHT22;1003;48.002;7.788;2023-12-20T08:59:19;6.60;99.90
2002;DHT22;1003;48.002;7.788;2023-12-20T09:01:46;6.60;99.90
2002;DHT22;1003;48.002;7.788;2023-12-20T09:04:19;6.60;99.90
2002;DHT22;1003;48.002;7.788;2023-12-20T09:06:46;6.60;99.90
2002;DHT22;1003;48.002;7.788;2023-12-20T09:09:13;6.60;99.90
2002;DHT22;1003;48.002;7.788;2023-12-20T09:11:40;6.70;99.90
2002;DHT22;1003;48.002;7.788;2023-12-20T09:14:09;6.70;99.90
2002;DHT22;1003;48.002;7.788;2023-12-20T09:16:36;6.70;99.90
2002;DHT22;1003;48.002;7.788;2023-12-20T09:19:02;6.80;99.90
2002;DHT22;1003;48.002;7.788;2023-12-20T09:21:29;6.80;99.90
2002;DHT22;1003;48.002;7.788;2023-12-20T09:23:56;6.80;99.90
2002;DHT22;1003;48.002;7.788;2023-12-20T09:26:24;6.80;99.90
2002;DHT22;1003;48.002;7.788;2023-12-20T09:28:51;6.90;99.90
2002;DHT22;1003;48.002;7.788;2023-12-20T09:31:19;6.80;99.90
2002;DHT22;1003;48.002;7.788;2023-12-20T09:33:46;6.80;99.90
2002;DHT22;1003;48.002;7.788;2023-12-20T09:36:13;6.80;99.90
2002;DHT22;1003;48.002;7.788;2023-12-20T09:38:40;6.80;99.90
2002;DHT22;1003;48.002;7.788;2023-12-20T09:41:07;6.80;99.90
2002;DHT22;1003;48.002;7.788;2023-12-20T09:43:37;6.70;99.90
2002;DHT22;1003;48.002;7.788;2023-12-20T09:46:06;6.70;99.90
2002;DHT22;1003;48.002;7.788;2023-12-20T09:48:36;6.60;99.90
2002;DHT22;1003;48.002;7.788;2023-12-20T09:51:04;6.50;99.90
2002;DHT22;1003;48.002;7.788;2023-12-20T09:53:33;6.50;99.90
2002;DHT22;1003;48.002;7.788;2023-12-20T09:56:06;6.50;99.90
2002;DHT22;1003;48.002;7.788;2023-12-20T09:58:36;6.60;99.90
2002;DHT22;1003;48.002;7.788;2023-12-20T10:01:05;6.70;99.90
2002;DHT22;1003;48.002;7.788;2023-12-20T10:03:32;6.70;99.90
2002;DHT22;1003;48.002;7.788;2023-12-20T10:06:02;6.70;99.90
2002;DHT22;1003;48.002;7.788;2023-12-20T10:08:29;6.60;99.90
2002;DHT22;1003;48.002;7.788;2023-12-20T10:10:57;6.60;99.90
2002;DHT22;1003;48.002;7.788;2023-12-20T10:13:28;6.60;99.90
2002;DHT22;1003;48.002;7.788;2023-12-20T10:15:55;6.80;99.90
2002;DHT22;1003;48.002;7.788;2023-12-20T10:18:22;6.90;99.90
2002;DHT22;1003;48.002;7.788;2023-12-20T10:20:51;6.90;99.90
2002;DHT22;1003;48.002;7.788;2023-12-20T10:23:18;6.90;99.90
2002;DHT22;1003;48.002;7.788;2023-12-20T10:25:56;7.00;99.90
2002;DHT22;1003;48.002;7.788;2023-12-20T10:28:23;7.00;99.90
2002;DHT22;1003;48.002;7.788;2023-12-20T10:30:53;7.00;99.90
2002;DHT22;1003;48.002;7.788;2023-12-20T10:33:24;7.00;99.90
2002;DHT22;1003;48.002;7.788;2023-12-20T10:49:46;6.90;99.90
2002;DHT22;1003;48.002;7.788;2023-12-20T10:52:13;7.10;99.90
2002;DHT22;1003;48.002;7.788;2023-12-20T10:54:41;7.30;99.90
2002;DHT22;1003;48.002;7.788;2023-12-20T10:57:08;7.30;99.90
2002;DHT22;1003;48.002;7.788;2023-12-20T10:59:37;7.20;99.90
2002;DHT22;1003;48.002;7.788;2023-12-20T11:02:05;7.00;99.90
2002;DHT22;1003;48.002;7.788;2023-12-20T11:04:39;6.90;99.90
2002;DHT22;1003;48.002;7.788;2023-12-20T11:07:19;6.80;99.90
2002;DHT22;1003;48.002;7.788;2023-12-20T11:09:57;6.60;99.90
2002;DHT22;1003;48.002;7.788;2023-12-20T11:12:35;6.50;99.90
2002;DHT22;1003;48.002;7.788;2023-12-20T11:15:08;6.50;99.90
2002;DHT22;1003;48.002;7.788;2023-12-20T11:17:35;6.60;99.90
2002;DHT22;1003;48.002;7.788;2023-12-20T11:20:10;6.70;99.90
2002;DHT22;1003;48.002;7.788;2023-12-20T11:22:40;6.70;99.90
2002;DHT22;1003;48.002;7.788;2023-12-20T11:25:47;6.80;99.90
2002;DHT22;1003;48.002;7.788;2023-12-20T11:28:15;7.00;99.90
2002;DHT22;1003;48.002;7.788;2023-12-20T11:30:47;7.10;99.90
2002;DHT22;1003;48.002;7.788;2023-12-20T11:33:15;7.30;99.90
2002;DHT22;1003;48.002;7.788;2023-12-20T11:36:00;7.60;99.90
2002;DHT22;1003;48.002;7.788;2023-12-20T11:38:36;7.90;99.90
2002;DHT22;1003;48.002;7.788;2023-12-20T11:41:05;7.80;99.90
2002;DHT22;1003;48.002;7.788;2023-12-20T11:43:35;8.00;99.90
2002;DHT22;1003;48.002;7.788;2023-12-20T11:46:04;8.20;99.90
2002;DHT22;1003;48.002;7.788;2023-12-20T11:48:32;8.10;99.90
2002;DHT22;1003;48.002;7.788;2023-12-20T11:51:00;8.00;99.90
2002;DHT22;1003;48.002;7.788;2023-12-20T11:53:29;8.00;99.90
2002;DHT22;1003;48.002;7.788;2023-12-20T11:55:56;8.10;99.90
2002;DHT22;1003;48.002;7.788;2023-12-20T11:58:23;8.10;99.90
2002;DHT22;1003;48.002;7.788;2023-12-20T12:00:51;8.10;99.90
2002;DHT22;1003;48.002;7.788;2023-12-20T12:03:18;8.10;99.90
2002;DHT22;1003;48.002;7.788;2023-12-20T12:05:49;8.00;99.90
2002;DHT22;1003;48.002;7.788;2023-12-20T12:08:18;8.20;99.90
2002;DHT22;1003;48.002;7.788;2023-12-20T12:10:45;8.30;99.90
2002;DHT22;1003;48.002;7.788;2023-12-20T12:13:12;8.20;99.90
2002;DHT22;1003;48.002;7.788;2023-12-20T12:15:40;8.20;99.90
2002;DHT22;1003;48.002;7.788;2023-12-20T12:18:10;8.10;99.90
2002;DHT22;1003;48.002;7.788;2023-12-20T12:20:38;8.10;99.90
2002;DHT22;1003;48.002;7.788;2023-12-20T12:23:05;8.10;99.90
2002;DHT22;1003;48.002;7.788;2023-12-20T12:25:35;8.00;99.90
2002;DHT22;1003;48.002;7.788;2023-12-20T12:35:35;8.00;99.90
2002;DHT22;1003;48.002;7.788;2023-12-20T12:38:02;8.30;99.90
2002;DHT22;1003;48.002;7.788;2023-12-20T12:40:29;8.40;99.90
2002;DHT22;1003;48.002;7.788;2023-12-20T12:42:57;8.30;99.90
2002;DHT22;1003;48.002;7.788;2023-12-20T12:45:24;8.20;99.90
2002;DHT22;1003;48.002;7.788;2023-12-20T12:47:52;8.10;99.90
2002;DHT22;1003;48.002;7.788;2023-12-20T12:50:20;8.10;99.90
2002;DHT22;1003;48.002;7.788;2023-12-20T12:52:47;7.90;99.90
2002;DHT22;1003;48.002;7.788;2023-12-20T12:55:14;7.80;99.90
2002;DHT22;1003;48.002;7.788;2023-12-20T12:57:41;7.60;99.90
2002;DHT22;1003;48.002;7.788;2023-12-20T13:00:11;7.60;99.90
2002;DHT22;1003;48.002;7.788;2023-12-20T13:02:39;7.60;99.90
2002;DHT22;1003;48.002;7.788;2023-12-20T13:05:07;7.50;99.90
2002;DHT22;1003;48.002;7.788;2023-12-20T13:07:35;7.40;99.90
2002;DHT22;1003;48.002;7.788;2023-12-20T13:10:03;7.40;99.90
2002;DHT22;1003;48.002;7.788;2023-12-20T13:12:31;7.40;99.90
2002;DHT22;1003;48.002;7.788;2023-12-20T13:14:58;7.30;99.90
2002;DHT22;1003;48.002;7.788;2023-12-20T13:17:26;7.40;99.90
2002;DHT22;1003;48.002;7.788;2023-12-20T13:19:53;7.40;99.90
2002;DHT22;1003;48.002;7.788;2023-12-20T13:22:20;7.30;99.90
2002;DHT22;1003;48.002;7.788;2023-12-20T13:24:47;7.30;99.90
2002;DHT22;1003;48.002;7.788;2023-12-20T13:27:14;7.30;99.90
2002;DHT22;1003;48.002;7.788;2023-12-20T13:29:41;7.40;99.90
2002;DHT22;1003;48.002;7.788;2023-12-20T13:32:08;7.40;99.90
2002;DHT22;1003;48.002;7.788;2023-12-20T13:34:36;7.40;99.90
2002;DHT22;1003;48.002;7.788;2023-12-20T13:37:03;7.50;99.90
2002;DHT22;1003;48.002;7.788;2023-12-20T13:39:30;7.50;99.90
2002;DHT22;1003;48.002;7.788;2023-12-20T13:41:58;7.50;99.90
2002;DHT22;1003;48.002;7.788;2023-12-20T13:44:25;7.50;99.90
2002;DHT22;1003;48.002;7.788;2023-12-20T13:47:20;7.60;99.90
2002;DHT22;1003;48.002;7.788;2023-12-20T13:49:49;7.60;99.90
2002;DHT22;1003;48.002;7.788;2023-12-20T13:52:16;7.60;99.90
2002;DHT22;1003;48.002;7.788;2023-12-20T13:54:42;7.50;99.90
2002;DHT22;1003;48.002;7.788;2023-12-20T13:57:09;7.40;99.90
2002;DHT22;1003;48.002;7.788;2023-12-20T13:59:36;7.30;99.90
2002;DHT22;1003;48.002;7.788;2023-12-20T14:02:03;7.30;99.90
2002;DHT22;1003;48.002;7.788;2023-12-20T14:04:30;7.30;99.90
2002;DHT22;1003;48.002;7.788;2023-12-20T14:06:59;7.40;99.90
2002;DHT22;1003;48.002;7.788;2023-12-20T14:09:26;7.40;99.90
2002;DHT22;1003;48.002;7.788;2023-12-20T14:11:52;7.50;99.90
2002;DHT22;1003;48.002;7.788;2023-12-20T14:14:20;7.50;99.90
2002;DHT22;1003;48.002;7.788;2023-12-20T14:16:59;7.50;99.90
2002;DHT22;1003;48.002;7.788;2023-12-20T14:19:26;7.50;99.90
2002;DHT22;1003;48.002;7.788;2023-12-20T14:21:53;7.50;99.90
2002;DHT22;1003;48.002;7.788;2023-12-20T14:24:21;7.40;99.90
2002;DHT22;1003;48.002;7.788;2023-12-20T14:26:48;7.40;99.90
2002;DHT22;1003;48.002;7.788;2023-12-20T14:29:25;7.30;99.90
2002;DHT22;1003;48.002;7.788;2023-12-20T14:32:05;7.30;99.90
2002;DHT22;1003;48.002;7.788;2023-12-20T14:34:46;7.20;99.90
2002;DHT22;1003;48.002;7.788;2023-12-20T14:37:24;7.20;99.90
2002;DHT22;1003;48.002;7.788;2023-12-20T14:40:03;7.10;99.90
2002;DHT22;1003;48.002;7.788;2023-12-20T14:42:43;7.10;99.90
2002;DHT22;1003;48.002;7.788;2023-12-20T14:46:01;7.10;99.90
2002;DHT22;1003;48.002;7.788;2023-12-20T14:48:28;7.10;99.90
2002;DHT22;1003;48.002;7.788;2023-12-20T14:51:11;7.00;99.90
2002;DHT22;1003;48.002;7.788;2023-12-20T14:53:40;7.00;99.90
2002;DHT22;1003;48.002;7.788;2023-12-20T14:56:34;6.90;99.90
2002;DHT22;1003;48.002;7.788;2023-12-20T14:59:18;6.90;99.90
2002;DHT22;1003;48.002;7.788;2023-12-20T15:01:44;6.90;99.90
2002;DHT22;1003;48.002;7.788;2023-12-20T15:04:11;6.80;99.90
2002;DHT22;1003;48.002;7.788;2023-12-20T15:06:39;6.70;99.90
2002;DHT22;1003;48.002;7.788;2023-12-20T15:09:06;6.70;99.90
2002;DHT22;1003;48.002;7.788;2023-12-20T15:11:35;6.60;99.90
2002;DHT22;1003;48.002;7.788;2023-12-20T15:14:02;6.70;99.90
2002;DHT22;1003;48.002;7.788;2023-12-20T15:16:29;6.70;99.90
2002;DHT22;1003;48.002;7.788;2023-12-20T15:18:56;6.60;99.90
2002;DHT22;1003;48.002;7.788;2023-12-20T15:21:25;6.70;99.90
2002;DHT22;1003;48.002;7.788;2023-12-20T15:23:57;6.70;99.90
2002;DHT22;1003;48.002;7.788;2023-12-20T15:26:31;6.70;99.90
2002;DHT22;1003;48.002;7.788;2023-12-20T15:29:00;6.70;99.90
2002;DHT22;1003;48.002;7.788;2023-12-20T15:31:27;6.60;99.90
2002;DHT22;1003;48.002;7.788;2023-12-20T15:33:55;6.40;99.90
2002;DHT22;1003;48.002;7.788;2023-12-20T15:36:22;6.30;99.90
2002;DHT22;1003;48.002;7.788;2023-12-20T15:38:49;6.20;99.90
2002;DHT22;1003;48.002;7.788;2023-12-20T15:41:19;6.00;99.90
2002;DHT22;1003;48.002;7.788;2023-12-20T15:43:47;5.90;99.90
2002;DHT22;1003;48.002;7.788;2023-12-20T15:46:15;5.80;99.90
2002;DHT22;1003;48.002;7.788;2023-12-20T15:48:42;5.70;99.90
2002;DHT22;1003;48.002;7.788;2023-12-20T15:51:10;5.60;99.90
2002;DHT22;1003;48.002;7.788;2023-12-20T15:53:37;5.50;99.90
2002;DHT22;1003;48.002;7.788;2023-12-20T15:56:05;5.40;99.90
2002;DHT22;1003;48.002;7.788;2023-12-20T15:58:33;5.40;99.90
2002;DHT22;1003;48.002;7.788;2023-12-20T16:01:00;5.40;99.90
2002;DHT22;1003;48.002;7.788;2023-12-20T16:03:28;5.30;99.90
2002;DHT22;1003;48.002;7.788;2023-12-20T16:05:55;5.30;99.90
2002;DHT22;1003;48.002;7.788;2023-12-20T16:08:24;5.20;99.90
2002;DHT22;1003;48.002;7.788;2023-12-20T16:10:51;5.20;99.90
2002;DHT22;1003;48.002;7.788;2023-12-20T16:13:18;5.10;99.90
2002;DHT22;1003;48.002;7.788;2023-12-20T16:15:46;5.10;99.90
2002;DHT22;1003;48.002;7.788;2023-12-20T16:18:12;5.10;99.90
2002;DHT22;1003;48.002;7.788;2023-12-20T16:20:41;5.20;99.90
2002;DHT22;1003;48.002;7.788;2023-12-20T16:23:08;5.20;99.90
2002;DHT22;1003;48.002;7.788;2023-12-20T16:25:35;5.20;99.90
2002;DHT22;1003;48.002;7.788;2023-12-20T16:28:03;5.20;99.90
2002;DHT22;1003;48.002;7.788;2023-12-20T16:30:31;5.20;99.90
2002;DHT22;1003;48.002;7.788;2023-12-20T16:32:58;5.30;99.90
2002;DHT22;1003;48.002;7.788;2023-12-20T16:35:25;5.20;99.90
2002;DHT22;1003;48.002;7.788;2023-12-20T16:37:53;5.20;99.90
2002;DHT22;1003;48.002;7.788;2023-12-20T16:40:20;5.20;99.90
2002;DHT22;1003;48.002;7.788;2023-12-20T16:42:50;5.20;99.90
2002;DHT22;1003;48.002;7.788;2023-12-20T16:45:17;5.20;99.90